sensor_id;sensor_type;location;lat;lon;timestamp;temperature;humidity
39325;DHT22;25037;49.488;9.900;2023-04-25T00:00:16;11.50;65.80
39325;DHT22;25037;49.488;9.900;2023-04-25T00:02:43;11.50;65.80
39325;DHT22;25037;49.488;9.900;2023-04-25T00:05:10;11.50;65.80
39325;DHT22;25037;49.488;9.900;2023-04-25T00:07:37;11.50;65.80
39325;DHT22;25037;49.488;9.900;2023-04-25T00:10:05;11.40;65.90
39325;DHT22;25037;49.488;9.900;2023-04-25T00:12:32;11.40;65.90
39325;DHT22;25037;49.488;9.900;2023-04-25T00:15:00;11.40;65.90
39325;DHT22;25037;49.488;9.900;2023-04-25T00:17:26;11.40;65.80
39325;DHT22;25037;49.488;9.900;2023-04-25T00:19:53;11.30;65.80
39325;DHT22;25037;49.488;9.900;2023-04-25T00:22:20;11.40;65.80
39325;DHT22;25037;49.488;9.900;2023-04-25T00:24:47;11.30;65.80
39325;DHT22;25037;49.488;9.900;2023-04-25T00:27:14;11.30;65.80
39325;DHT22;25037;49.488;9.900;2023-04-25T00:29:40;11.30;65.80
39325;DHT22;25037;49.488;9.900;2023-04-25T00:32:07;11.30;65.80
39325;DHT22;25037;49.488;9.900;2023-04-25T00:34:34;11.20;65.80
39325;DHT22;25037;49.488;9.900;2023-04-25T00:37:00;11.20;65.90
39325;DHT22;25037;49.488;9.900;2023-04-25T00:39:30;11.10;66.00
39325;DHT22;25037;49.488;9.900;2023-04-25T00:41:57;11.00;66.00
39325;DHT22;25037;49.488;9.900;2023-04-25T00:44:24;11.10;66.20
39325;DHT22;25037;49.488;9.900;2023-04-25T00:46:54;11.00;66.20
39325;DHT22;25037;49.488;9.900;2023-04-25T00:49:20;11.00;66.30
39325;DHT22;25037;49.488;9.900;2023-04-25T00:51:48;11.00;66.30
39325;DHT22;25037;49.488;9.900;2023-04-25T00:54:14;11.00;66.30
39325;DHT22;25037;49.488;9.900;2023-04-25T00:56:42;10.90;66.40
39325;DHT22;25037;49.488;9.900;2023-04-25T00:59:09;10.90;66.40
39325;DHT22;25037;49.488;9.900;2023-04-25T01:01:36;10.90;66.50
39325;DHT22;25037;49.488;9.900;2023-04-25T01:04:04;10.80;66.50
39325;DHT22;25037;49.488;9.900;2023-04-25T01:06:31;10.80;66.60
39325;DHT22;25037;49.488;9.900;2023-04-25T01:08:59;10.80;66.80
39325;DHT22;25037;49.488;9.900;2023-04-25T01:11:25;10.70;66.90
39325;DHT22;25037;49.488;9.900;2023-04-25T01:13:52;10.70;67.10
39325;DHT22;25037;49.488;9.900;2023-04-25T01:16:19;10.70;67.20
39325;DHT22;25037;49.488;9.900;2023-04-25T01:18:47;10.60;67.30
39325;DHT22;25037;49.488;9.900;2023-04-25T01:21:14;10.60;67.50
39325;DHT22;25037;49.488;9.900;2023-04-25T01:23:42;10.60;67.60
39325;DHT22;25037;49.488;9.900;2023-04-25T01:26:10;10.60;67.70
39325;DHT22;25037;49.488;9.900;2023-04-25T01:28:38;10.70;67.80
39325;DHT22;25037;49.488;9.900;2023-04-25T01:31:08;10.70;67.80
39325;DHT22;25037;49.488;9.900;2023-04-25T01:33:35;10.70;67.70
39325;DHT22;25037;49.488;9.900;2023-04-25T01:36:02;10.70;67.80
39325;DHT22;25037;49.488;9.900;2023-04-25T01:38:29;10.80;67.80
39325;DHT22;25037;49.488;9.900;2023-04-25T01:40:56;10.80;67.80
39325;DHT22;25037;49.488;9.900;2023-04-25T01:43:23;10.80;67.80
39325;DHT22;25037;49.488;9.900;2023-04-25T01:45:50;10.80;67.90
39325;DHT22;25037;49.488;9.900;2023-04-25T01:48:17;10.80;67.80
39325;DHT22;25037;49.488;9.900;2023-04-25T01:50:44;10.80;67.90
39325;DHT22;25037;49.488;9.900;2023-04-25T01:53:12;10.80;68.00
39325;DHT22;25037;49.488;9.900;2023-04-25T01:55:39;10.70;68.10
39325;DHT22;25037;49.488;9.900;2023-04-25T01:58:06;10.80;68.00
39325;DHT22;25037;49.488;9.900;2023-04-25T02:00:36;10.80;68.00
39325;DHT22;25037;49.488;9.900;2023-04-25T02:03:07;10.80;68.10
39325;DHT22;25037;49.488;9.900;2023-04-25T02:05:38;10.80;68.10
39325;DHT22;25037;49.488;9.900;2023-04-25T02:08:06;10.80;68.20
39325;DHT22;25037;49.488;9.900;2023-04-25T02:10:34;10.80;68.00
39325;DHT22;25037;49.488;9.900;2023-04-25T02:13:01;10.90;68.00
39325;DHT22;25037;49.488;9.900;2023-04-25T02:15:28;10.90;67.90
39325;DHT22;25037;49.488;9.900;2023-04-25T02:17:55;10.90;67.80
39325;DHT22;25037;49.488;9.900;2023-04-25T02:20:22;11.00;67.90
39325;DHT22;25037;49.488;9.900;2023-04-25T02:22:49;11.00;67.80
39325;DHT22;25037;49.488;9.900;2023-04-25T02:25:17;11.00;67.80
39325;DHT22;25037;49.488;9.900;2023-04-25T02:27:47;11.00;67.90
39325;DHT22;25037;49.488;9.900;2023-04-25T02:30:14;10.90;67.90
39325;DHT22;25037;49.488;9.900;2023-04-25T02:32:41;11.00;67.90
39325;DHT22;25037;49.488;9.900;2023-04-25T02:35:09;11.00;67.90
39325;DHT22;25037;49.488;9.900;2023-04-25T02:37:37;11.00;67.90
39325;DHT22;25037;49.488;9.900;2023-04-25T02:40:05;10.90;68.00
39325;DHT22;25037;49.488;9.900;2023-04-25T02:42:32;10.90;68.10
39325;DHT22;25037;49.488;9.900;2023-04-25T02:44:59;11.00;68.10
39325;DHT22;25037;49.488;9.900;2023-04-25T02:47:25;11.00;68.10
39325;DHT22;25037;49.488;9.900;2023-04-25T02:49:52;11.00;68.10
39325;DHT22;25037;49.488;9.900;2023-04-25T02:52:19;11.00;68.00
39325;DHT22;25037;49.488;9.900;2023-04-25T02:54:46;11.00;68.00
39325;DHT22;25037;49.488;9.900;2023-04-25T02:57:12;11.00;68.10
39325;DHT22;25037;49.488;9.900;2023-04-25T02:59:39;11.10;68.10
39325;DHT22;25037;49.488;9.900;2023-04-25T03:02:06;11.10;68.00
39325;DHT22;25037;49.488;9.900;2023-04-25T03:04:32;11.10;68.00
39325;DHT22;25037;49.488;9.900;2023-04-25T03:07:00;11.20;67.90
39325;DHT22;25037;49.488;9.900;2023-04-25T03:09:27;11.10;67.80
39325;DHT22;25037;49.488;9.900;2023-04-25T03:11:54;11.10;67.80
39325;DHT22;25037;49.488;9.900;2023-04-25T03:14:20;11.10;67.80
39325;DHT22;25037;49.488;9.900;2023-04-25T03:16:47;11.00;67.90
39325;DHT22;25037;49.488;9.900;2023-04-25T03:19:14;11.00;68.00
39325;DHT22;25037;49.488;9.900;2023-04-25T03:21:42;11.00;68.00
39325;DHT22;25037;49.488;9.900;2023-04-25T03:24:09;11.00;68.00
39325;DHT22;25037;49.488;9.900;2023-04-25T03:26:37;11.00;68.10
39325;DHT22;25037;49.488;9.900;2023-04-25T03:29:04;11.00;68.10
39325;DHT22;25037;49.488;9.900;2023-04-25T03:31:30;11.00;68.10
39325;DHT22;25037;49.488;9.900;2023-04-25T03:33:57;11.00;68.10
39325;DHT22;25037;49.488;9.900;2023-04-25T03:36:24;10.90;68.10
39325;DHT22;25037;49.488;9.900;2023-04-25T03:38:51;10.90;68.10
39325;DHT22;25037;49.488;9.900;2023-04-25T03:41:17;11.00;68.20
39325;DHT22;25037;49.488;9.900;2023-04-25T03:43:44;10.90;68.00
39325;DHT22;25037;49.488;9.900;2023-04-25T03:46:11;10.90;67.90
39325;DHT22;25037;49.488;9.900;2023-04-25T03:48:38;10.90;68.00
39325;DHT22;25037;49.488;9.900;2023-04-25T03:51:04;11.00;68.00
39325;DHT22;25037;49.488;9.900;2023-04-25T03:53:31;11.00;68.00
39325;DHT22;25037;49.488;9.900;2023-04-25T03:55:58;11.00;68.00
39325;DHT22;25037;49.488;9.900;2023-04-25T03:58:24;11.00;68.00
39325;DHT22;25037;49.488;9.900;2023-04-25T04:00:51;11.00;68.00
39325;DHT22;25037;49.488;9.900;2023-04-25T04:03:17;11.00;67.90
39325;DHT22;25037;49.488;9.900;2023-04-25T04:05:44;11.00;68.00
39325;DHT22;25037;49.488;9.900;2023-04-25T04:08:11;11.00;67.90
39325;DHT22;25037;49.488;9.900;2023-04-25T04:10:38;11.00;67.80
39325;DHT22;25037;49.488;9.900;2023-04-25T04:13:05;11.00;67.80
39325;DHT22;25037;49.488;9.900;2023-04-25T04:15:31;11.00;67.80
39325;DHT22;25037;49.488;9.900;2023-04-25T04:17:59;11.00;67.80
39325;DHT22;25037;49.488;9.900;2023-04-25T04:20:29;11.00;67.80
39325;DHT22;25037;49.488;9.900;2023-04-25T04:22:59;11.00;68.00
39325;DHT22;25037;49.488;9.900;2023-04-25T04:25:26;11.00;68.00
39325;DHT22;25037;49.488;9.900;2023-04-25T04:27:52;11.00;68.10
39325;DHT22;25037;49.488;9.900;2023-04-25T04:30:22;11.00;68.10
39325;DHT22;25037;49.488;9.900;2023-04-25T04:32:51;11.00;68.30
39325;DHT22;25037;49.488;9.900;2023-04-25T04:35:18;11.00;68.50
39325;DHT22;25037;49.488;9.900;2023-04-25T04:37:45;11.00;68.70
39325;DHT22;25037;49.488;9.900;2023-04-25T04:40:12;11.00;68.70
39325;DHT22;25037;49.488;9.900;2023-04-25T04:42:43;11.00;68.70
39325;DHT22;25037;49.488;9.900;2023-04-25T04:45:10;11.00;68.80
39325;DHT22;25037;49.488;9.900;2023-04-25T04:47:37;11.00;68.90
39325;DHT22;25037;49.488;9.900;2023-04-25T04:50:04;11.00;69.00
39325;DHT22;25037;49.488;9.900;2023-04-25T04:52:30;11.00;69.10
39325;DHT22;25037;49.488;9.900;2023-04-25T04:54:57;11.00;69.20
39325;DHT22;25037;49.488;9.900;2023-04-25T04:57:24;11.00;69.30
39325;DHT22;25037;49.488;9.900;2023-04-25T04:59:51;11.00;69.40
39325;DHT22;25037;49.488;9.900;2023-04-25T05:02:17;11.00;69.40
39325;DHT22;25037;49.488;9.900;2023-04-25T05:04:44;11.00;69.40
39325;DHT22;25037;49.488;9.900;2023-04-25T05:07:11;10.90;69.60
39325;DHT22;25037;49.488;9.900;2023-04-25T05:09:38;10.90;69.70
39325;DHT22;25037;49.488;9.900;2023-04-25T05:12:05;11.00;69.80
39325;DHT22;25037;49.488;9.900;2023-04-25T05:14:32;11.00;69.80
39325;DHT22;25037;49.488;9.900;2023-04-25T05:16:59;11.00;69.70
39325;DHT22;25037;49.488;9.900;2023-04-25T05:19:26;11.10;69.60
39325;DHT22;25037;49.488;9.900;2023-04-25T05:21:52;11.00;69.60
39325;DHT22;25037;49.488;9.900;2023-04-25T05:24:19;11.00;69.60
39325;DHT22;25037;49.488;9.900;2023-04-25T05:26:46;11.00;69.50
39325;DHT22;25037;49.488;9.900;2023-04-25T05:29:13;11.10;69.40
39325;DHT22;25037;49.488;9.900;2023-04-25T05:31:39;11.10;69.30
39325;DHT22;25037;49.488;9.900;2023-04-25T05:34:06;11.10;69.20
39325;DHT22;25037;49.488;9.900;2023-04-25T05:36:33;11.10;69.20
39325;DHT22;25037;49.488;9.900;2023-04-25T05:38:59;11.10;69.30
39325;DHT22;25037;49.488;9.900;2023-04-25T05:41:26;11.20;69.30
39325;DHT22;25037;49.488;9.900;2023-04-25T05:43:53;11.20;69.30
39325;DHT22;25037;49.488;9.900;2023-04-25T05:46:23;11.20;69.20
39325;DHT22;25037;49.488;9.900;2023-04-25T05:48:50;11.20;69.00
39325;DHT22;25037;49.488;9.900;2023-04-25T05:51:16;11.20;68.80
39325;DHT22;25037;49.488;9.900;2023-04-25T05:53:44;11.30;68.80
39325;DHT22;25037;49.488;9.900;2023-04-25T05:56:12;11.20;68.70
39325;DHT22;25037;49.488;9.900;2023-04-25T05:58:38;11.30;68.60
39325;DHT22;25037;49.488;9.900;2023-04-25T06:01:05;11.30;68.80
39325;DHT22;25037;49.488;9.900;2023-04-25T06:03:32;11.30;68.90
39325;DHT22;25037;49.488;9.900;2023-04-25T06:05:59;11.30;68.90
39325;DHT22;25037;49.488;9.900;2023-04-25T06:08:25;11.30;69.00
39325;DHT22;25037;49.488;9.900;2023-04-25T06:10:52;11.40;69.00
39325;DHT22;25037;49.488;9.900;2023-04-25T06:13:19;11.50;69.00
39325;DHT22;25037;49.488;9.900;2023-04-25T06:15:45;11.60;68.90
39325;DHT22;25037;49.488;9.900;2023-04-25T06:18:12;11.60;68.90
39325;DHT22;25037;49.488;9.900;2023-04-25T06:20:39;11.60;68.70
39325;DHT22;25037;49.488;9.900;2023-04-25T06:23:06;11.70;68.80
39325;DHT22;25037;49.488;9.900;2023-04-25T06:25:32;11.80;68.70
39325;DHT22;25037;49.488;9.900;2023-04-25T06:27:59;11.80;68.70
39325;DHT22;25037;49.488;9.900;2023-04-25T06:30:26;11.90;68.60
39325;DHT22;25037;49.488;9.900;2023-04-25T06:32:52;12.00;68.50
39325;DHT22;25037;49.488;9.900;2023-04-25T06:35:20;12.10;68.20
39325;DHT22;25037;49.488;9.900;2023-04-25T06:37:47;12.30;68.00
39325;DHT22;25037;49.488;9.900;2023-04-25T06:40:14;12.30;67.80
39325;DHT22;25037;49.488;9.900;2023-04-25T06:42:41;12.50;67.70
39325;DHT22;25037;49.488;9.900;2023-04-25T06:45:08;12.60;67.70
39325;DHT22;25037;49.488;9.900;2023-04-25T06:47:35;12.60;67.50
39325;DHT22;25037;49.488;9.900;2023-04-25T06:50:01;12.70;67.30
39325;DHT22;25037;49.488;9.900;2023-04-25T06:52:28;12.80;67.20
39325;DHT22;25037;49.488;9.900;2023-04-25T06:54:55;12.80;67.10
39325;DHT22;25037;49.488;9.900;2023-04-25T06:57:22;12.80;66.90
39325;DHT22;25037;49.488;9.900;2023-04-25T06:59:48;12.90;66.70
39325;DHT22;25037;49.488;9.900;2023-04-25T07:02:15;12.90;66.30
39325;DHT22;25037;49.488;9.900;2023-04-25T07:04:42;12.90;66.00
39325;DHT22;25037;49.488;9.900;2023-04-25T07:07:09;13.00;66.20
39325;DHT22;25037;49.488;9.900;2023-04-25T07:09:35;13.10;66.00
39325;DHT22;25037;49.488;9.900;2023-04-25T07:12:02;13.10;65.70
39325;DHT22;25037;49.488;9.900;2023-04-25T07:14:29;13.20;65.10
39325;DHT22;25037;49.488;9.900;2023-04-25T07:16:56;13.20;64.80
39325;DHT22;25037;49.488;9.900;2023-04-25T07:19:23;13.20;64.80
39325;DHT22;25037;49.488;9.900;2023-04-25T07:21:53;13.20;65.00
39325;DHT22;25037;49.488;9.900;2023-04-25T07:24:19;13.20;65.00
39325;DHT22;25037;49.488;9.900;2023-04-25T07:26:46;13.30;64.70
39325;DHT22;25037;49.488;9.900;2023-04-25T07:29:13;13.30;64.30
39325;DHT22;25037;49.488;9.900;2023-04-25T07:31:39;13.30;64.00
39325;DHT22;25037;49.488;9.900;2023-04-25T07:34:06;13.30;64.00
39325;DHT22;25037;49.488;9.900;2023-04-25T07:36:33;13.30;63.80
39325;DHT22;25037;49.488;9.900;2023-04-25T07:38:59;13.30;64.00
39325;DHT22;25037;49.488;9.900;2023-04-25T07:41:26;13.40;63.70
39325;DHT22;25037;49.488;9.900;2023-04-25T07:43:53;13.30;63.50
39325;DHT22;25037;49.488;9.900;2023-04-25T07:46:19;13.30;63.40
39325;DHT22;25037;49.488;9.900;2023-04-25T07:48:46;13.20;63.00
39325;DHT22;25037;49.488;9.900;2023-04-25T07:51:13;13.20;63.30
39325;DHT22;25037;49.488;9.900;2023-04-25T07:53:40;13.20;63.10
39325;DHT22;25037;49.488;9.900;2023-04-25T07:56:07;13.20;63.00
39325;DHT22;25037;49.488;9.900;2023-04-25T07:58:34;13.30;62.80
39325;DHT22;25037;49.488;9.900;2023-04-25T08:01:01;13.30;62.50
39325;DHT22;25037;49.488;9.900;2023-04-25T08:03:27;13.30;62.40
39325;DHT22;25037;49.488;9.900;2023-04-25T08:05:54;13.20;62.30
39325;DHT22;25037;49.488;9.900;2023-04-25T08:08:22;13.30;62.60
39325;DHT22;25037;49.488;9.900;2023-04-25T08:10:48;13.30;62.80
39325;DHT22;25037;49.488;9.900;2023-04-25T08:13:15;13.30;62.80
39325;DHT22;25037;49.488;9.900;2023-04-25T08:15:42;13.30;62.70
39325;DHT22;25037;49.488;9.900;2023-04-25T08:18:08;13.50;62.70
39325;DHT22;25037;49.488;9.900;2023-04-25T08:20:35;13.80;62.30
39325;DHT22;25037;49.488;9.900;2023-04-25T08:23:02;14.30;61.90
39325;DHT22;25037;49.488;9.900;2023-04-25T08:25:29;14.80;60.90
39325;DHT22;25037;49.488;9.900;2023-04-25T08:27:55;15.20;59.90
39325;DHT22;25037;49.488;9.900;2023-04-25T08:30:23;15.50;58.30
39325;DHT22;25037;49.488;9.900;2023-04-25T08:32:50;15.80;58.30
39325;DHT22;25037;49.488;9.900;2023-04-25T08:35:17;16.00;57.70
39325;DHT22;25037;49.488;9.900;2023-04-25T08:37:44;16.10;57.30
39325;DHT22;25037;49.488;9.900;2023-04-25T08:40:12;16.30;56.40
39325;DHT22;25037;49.488;9.900;2023-04-25T08:42:41;16.50;55.70
39325;DHT22;25037;49.488;9.900;2023-04-25T08:45:09;16.80;54.60
39325;DHT22;25037;49.488;9.900;2023-04-25T08:47:38;17.20;53.70
39325;DHT22;25037;49.488;9.900;2023-04-25T08:50:05;17.40;53.00
39325;DHT22;25037;49.488;9.900;2023-04-25T08:52:37;17.70;52.40
39325;DHT22;25037;49.488;9.900;2023-04-25T08:55:07;17.80;51.30
39325;DHT22;25037;49.488;9.900;2023-04-25T08:57:35;17.90;50.30
39325;DHT22;25037;49.488;9.900;2023-04-25T09:00:03;17.90;49.10
39325;DHT22;25037;49.488;9.900;2023-04-25T09:02:31;18.00;48.70
39325;DHT22;25037;49.488;9.900;2023-04-25T09:04:58;18.00;48.70
39325;DHT22;25037;49.488;9.900;2023-04-25T09:07:25;18.20;48.40
39325;DHT22;25037;49.488;9.900;2023-04-25T09:09:52;18.30;47.30
39325;DHT22;25037;49.488;9.900;2023-04-25T09:12:19;18.40;47.20
39325;DHT22;25037;49.488;9.900;2023-04-25T09:15:07;18.60;46.80
39325;DHT22;25037;49.488;9.900;2023-04-25T09:17:34;18.70;45.00
39325;DHT22;25037;49.488;9.900;2023-04-25T09:20:13;18.70;45.80
39325;DHT22;25037;49.488;9.900;2023-04-25T09:22:40;18.90;44.80
39325;DHT22;25037;49.488;9.900;2023-04-25T09:25:11;18.90;44.90
39325;DHT22;25037;49.488;9.900;2023-04-25T09:27:54;18.90;44.70
39325;DHT22;25037;49.488;9.900;2023-04-25T09:30:35;19.00;44.10
39325;DHT22;25037;49.488;9.900;2023-04-25T09:33:10;19.00;43.80
39325;DHT22;25037;49.488;9.900;2023-04-25T09:35:38;19.00;43.30
39325;DHT22;25037;49.488;9.900;2023-04-25T09:38:12;19.00;42.90
39325;DHT22;25037;49.488;9.900;2023-04-25T09:40:44;19.20;42.90
39325;DHT22;25037;49.488;9.900;2023-04-25T09:43:22;19.50;42.10
39325;DHT22;25037;49.488;9.900;2023-04-25T09:45:50;19.70;41.60
39325;DHT22;25037;49.488;9.900;2023-04-25T09:48:19;19.80;41.30
39325;DHT22;25037;49.488;9.900;2023-04-25T09:51:10;19.90;41.10
39325;DHT22;25037;49.488;9.900;2023-04-25T09:53:42;20.00;39.90
39325;DHT22;25037;49.488;9.900;2023-04-25T09:56:11;20.00;39.70
39325;DHT22;25037;49.488;9.900;2023-04-25T09:58:39;20.00;39.50
39325;DHT22;25037;49.488;9.900;2023-04-25T10:01:07;20.00;39.90
39325;DHT22;25037;49.488;9.900;2023-04-25T10:03:37;20.10;39.70
39325;DHT22;25037;49.488;9.900;2023-04-25T10:06:16;20.00;39.30
39325;DHT22;25037;49.488;9.900;2023-04-25T10:08:45;20.00;38.90
39325;DHT22;25037;49.488;9.900;2023-04-25T10:11:14;19.80;39.30
39325;DHT22;25037;49.488;9.900;2023-04-25T10:13:43;19.70;38.70
39325;DHT22;25037;49.488;9.900;2023-04-25T10:16:11;19.60;38.70
39325;DHT22;25037;49.488;9.900;2023-04-25T10:18:38;19.60;38.60
39325;DHT22;25037;49.488;9.900;2023-04-25T10:21:06;19.70;38.80
39325;DHT22;25037;49.488;9.900;2023-04-25T10:23:33;19.70;38.30
39325;DHT22;25037;49.488;9.900;2023-04-25T10:26:01;19.70;38.50
39325;DHT22;25037;49.488;9.900;2023-04-25T10:28:28;19.80;38.60
39325;DHT22;25037;49.488;9.900;2023-04-25T10:31:01;20.00;38.10
39325;DHT22;25037;49.488;9.900;2023-04-25T10:33:38;20.10;38.40
39325;DHT22;25037;49.488;9.900;2023-04-25T10:36:13;20.20;37.90
39325;DHT22;25037;49.488;9.900;2023-04-25T10:38:45;20.00;38.00
39325;DHT22;25037;49.488;9.900;2023-04-25T10:41:13;19.80;38.10
39325;DHT22;25037;49.488;9.900;2023-04-25T10:46:18;19.30;38.80
39325;DHT22;25037;49.488;9.900;2023-04-25T10:48:48;19.10;39.00
39325;DHT22;25037;49.488;9.900;2023-04-25T10:51:29;19.20;39.20
39325;DHT22;25037;49.488;9.900;2023-04-25T10:54:09;19.40;38.90
39325;DHT22;25037;49.488;9.900;2023-04-25T10:59:16;19.30;38.60
39325;DHT22;25037;49.488;9.900;2023-04-25T11:01:44;19.30;38.80
39325;DHT22;25037;49.488;9.900;2023-04-25T11:04:31;19.30;38.90
39325;DHT22;25037;49.488;9.900;2023-04-25T11:09:36;19.50;37.70
39325;DHT22;25037;49.488;9.900;2023-04-25T11:12:02;19.30;38.30
39325;DHT22;25037;49.488;9.900;2023-04-25T11:14:29;19.20;38.40
39325;DHT22;25037;49.488;9.900;2023-04-25T11:16:57;19.10;38.80
39325;DHT22;25037;49.488;9.900;2023-04-25T11:19:27;19.10;38.30
39325;DHT22;25037;49.488;9.900;2023-04-25T11:21:57;19.00;38.60
39325;DHT22;25037;49.488;9.900;2023-04-25T11:24:33;18.90;38.70
39325;DHT22;25037;49.488;9.900;2023-04-25T11:27:02;18.80;39.10
39325;DHT22;25037;49.488;9.900;2023-04-25T11:29:32;18.70;39.30
39325;DHT22;25037;49.488;9.900;2023-04-25T11:31:59;18.70;39.20
39325;DHT22;25037;49.488;9.900;2023-04-25T11:34:28;18.60;39.30
39325;DHT22;25037;49.488;9.900;2023-04-25T11:37:00;18.50;39.40
39325;DHT22;25037;49.488;9.900;2023-04-25T11:39:28;18.40;39.50
39325;DHT22;25037;49.488;9.900;2023-04-25T11:41:55;18.20;39.50
39325;DHT22;25037;49.488;9.900;2023-04-25T11:44:22;18.10;39.50
39325;DHT22;25037;49.488;9.900;2023-04-25T11:46:49;18.00;39.40
39325;DHT22;25037;49.488;9.900;2023-04-25T11:49:16;17.80;39.60
39325;DHT22;25037;49.488;9.900;2023-04-25T11:51:46;17.70;39.80
39325;DHT22;25037;49.488;9.900;2023-04-25T11:54:14;17.70;39.90
39325;DHT22;25037;49.488;9.900;2023-04-25T11:56:45;17.70;40.10
39325;DHT22;25037;49.488;9.900;2023-04-25T11:59:12;17.80;40.20
39325;DHT22;25037;49.488;9.900;2023-04-25T12:01:41;17.70;40.10
39325;DHT22;25037;49.488;9.900;2023-04-25T12:04:21;17.50;40.10
39325;DHT22;25037;49.488;9.900;2023-04-25T12:06:51;17.50;40.10
39325;DHT22;25037;49.488;9.900;2023-04-25T12:09:21;17.50;40.50
39325;DHT22;25037;49.488;9.900;2023-04-25T12:11:52;17.60;40.60
39325;DHT22;25037;49.488;9.900;2023-04-25T12:14:33;17.70;40.40
39325;DHT22;25037;49.488;9.900;2023-04-25T12:17:02;17.80;40.00
39325;DHT22;25037;49.488;9.900;2023-04-25T12:19:33;17.80;40.00
39325;DHT22;25037;49.488;9.900;2023-04-25T12:22:02;17.80;39.80
39325;DHT22;25037;49.488;9.900;2023-04-25T12:24:33;17.70;39.80
39325;DHT22;25037;49.488;9.900;2023-04-25T12:27:06;17.60;39.70
39325;DHT22;25037;49.488;9.900;2023-04-25T12:29:34;17.50;40.00
39325;DHT22;25037;49.488;9.900;2023-04-25T12:32:15;17.50;40.10
39325;DHT22;25037;49.488;9.900;2023-04-25T12:34:43;17.50;40.20
39325;DHT22;25037;49.488;9.900;2023-04-25T12:37:10;17.60;40.20
39325;DHT22;25037;49.488;9.900;2023-04-25T12:39:37;17.60;40.20
39325;DHT22;25037;49.488;9.900;2023-04-25T12:42:04;17.50;39.90
39325;DHT22;25037;49.488;9.900;2023-04-25T12:44:34;17.40;40.10
39325;DHT22;25037;49.488;9.900;2023-04-25T12:47:02;17.40;40.30
39325;DHT22;25037;49.488;9.900;2023-04-25T12:49:29;17.30;40.30
39325;DHT22;25037;49.488;9.900;2023-04-25T12:51:56;17.30;40.60
39325;DHT22;25037;49.488;9.900;2023-04-25T12:54:23;17.40;40.80
39325;DHT22;25037;49.488;9.900;2023-04-25T12:56:50;17.40;40.90
39325;DHT22;25037;49.488;9.900;2023-04-25T12:59:17;17.50;40.90
39325;DHT22;25037;49.488;9.900;2023-04-25T13:01:44;17.60;40.70
39325;DHT22;25037;49.488;9.900;2023-04-25T13:04:12;17.70;40.70
39325;DHT22;25037;49.488;9.900;2023-04-25T13:06:39;17.70;40.70
39325;DHT22;25037;49.488;9.900;2023-04-25T13:09:05;17.70;40.60
39325;DHT22;25037;49.488;9.900;2023-04-25T13:11:33;17.70;40.60
39325;DHT22;25037;49.488;9.900;2023-04-25T13:14:00;17.60;40.70
39325;DHT22;25037;49.488;9.900;2023-04-25T13:16:27;17.40;41.10
39325;DHT22;25037;49.488;9.900;2023-04-25T13:18:54;17.20;41.60
39325;DHT22;25037;49.488;9.900;2023-04-25T13:21:22;17.10;41.80
39325;DHT22;25037;49.488;9.900;2023-04-25T13:23:49;16.90;42.20
39325;DHT22;25037;49.488;9.900;2023-04-25T13:26:17;16.90;42.30
39325;DHT22;25037;49.488;9.900;2023-04-25T13:28:43;16.80;42.00
39325;DHT22;25037;49.488;9.900;2023-04-25T13:31:10;16.70;42.10
39325;DHT22;25037;49.488;9.900;2023-04-25T13:33:37;16.80;42.20
39325;DHT22;25037;49.488;9.900;2023-04-25T13:36:04;16.70;42.30
39325;DHT22;25037;49.488;9.900;2023-04-25T13:38:31;16.70;42.10
39325;DHT22;25037;49.488;9.900;2023-04-25T13:40:58;16.80;41.90
39325;DHT22;25037;49.488;9.900;2023-04-25T13:43:25;16.80;41.80
39325;DHT22;25037;49.488;9.900;2023-04-25T13:45:51;16.80;41.60
39325;DHT22;25037;49.488;9.900;2023-04-25T13:48:18;16.70;41.50
39325;DHT22;25037;49.488;9.900;2023-04-25T13:50:45;17.00;41.60
39325;DHT22;25037;49.488;9.900;2023-04-25T13:53:12;17.10;41.60
39325;DHT22;25037;49.488;9.900;2023-04-25T13:55:39;17.30;41.30
39325;DHT22;25037;49.488;9.900;2023-04-25T13:58:06;17.40;41.10
39325;DHT22;25037;49.488;9.900;2023-04-25T14:00:38;17.60;40.70
39325;DHT22;25037;49.488;9.900;2023-04-25T14:03:06;17.80;40.80
39325;DHT22;25037;49.488;9.900;2023-04-25T14:05:36;17.90;40.90
39325;DHT22;25037;49.488;9.900;2023-04-25T14:08:07;17.90;40.30
39325;DHT22;25037;49.488;9.900;2023-04-25T14:10:36;17.80;40.40
39325;DHT22;25037;49.488;9.900;2023-04-25T14:13:03;17.70;40.20
39325;DHT22;25037;49.488;9.900;2023-04-25T14:15:34;17.60;40.30
39325;DHT22;25037;49.488;9.900;2023-04-25T14:18:01;17.50;40.40
39325;DHT22;25037;49.488;9.900;2023-04-25T14:20:29;17.50;40.70
39325;DHT22;25037;49.488;9.900;2023-04-25T14:22:56;17.40;40.80
39325;DHT22;25037;49.488;9.900;2023-04-25T14:25:25;17.30;40.70
39325;DHT22;25037;49.488;9.900;2023-04-25T14:27:51;17.20;40.80
39325;DHT22;25037;49.488;9.900;2023-04-25T14:30:19;17.10;41.10
39325;DHT22;25037;49.488;9.900;2023-04-25T14:32:47;17.00;41.40
39325;DHT22;25037;49.488;9.900;2023-04-25T14:35:15;16.80;41.60
39325;DHT22;25037;49.488;9.900;2023-04-25T14:37:42;16.70;41.90
39325;DHT22;25037;49.488;9.900;2023-04-25T14:40:09;16.60;42.10
39325;DHT22;25037;49.488;9.900;2023-04-25T14:42:37;16.40;42.30
39325;DHT22;25037;49.488;9.900;2023-04-25T14:45:05;16.50;42.60
39325;DHT22;25037;49.488;9.900;2023-04-25T14:47:33;16.70;42.50
39325;DHT22;25037;49.488;9.900;2023-04-25T14:50:00;16.90;42.20
39325;DHT22;25037;49.488;9.900;2023-04-25T14:52:28;17.00;41.90
39325;DHT22;25037;49.488;9.900;2023-04-25T14:54:55;17.10;41.80
39325;DHT22;25037;49.488;9.900;2023-04-25T14:57:21;17.10;41.70
39325;DHT22;25037;49.488;9.900;2023-04-25T14:59:48;17.20;41.50
39325;DHT22;25037;49.488;9.900;2023-04-25T15:02:15;17.20;41.40
39325;DHT22;25037;49.488;9.900;2023-04-25T15:04:42;17.10;41.50
39325;DHT22;25037;49.488;9.900;2023-04-25T15:07:09;17.10;41.40
39325;DHT22;25037;49.488;9.900;2023-04-25T15:09:36;17.20;41.30
39325;DHT22;25037;49.488;9.900;2023-04-25T15:12:03;17.20;40.90
39325;DHT22;25037;49.488;9.900;2023-04-25T15:14:30;17.00;40.70
39325;DHT22;25037;49.488;9.900;2023-04-25T15:16:57;16.90;41.00
39325;DHT22;25037;49.488;9.900;2023-04-25T15:19:24;16.80;40.90
39325;DHT22;25037;49.488;9.900;2023-04-25T15:21:51;16.80;41.10
39325;DHT22;25037;49.488;9.900;2023-04-25T15:24:18;16.70;41.10
39325;DHT22;25037;49.488;9.900;2023-04-25T15:26:44;16.70;41.00
39325;DHT22;25037;49.488;9.900;2023-04-25T15:29:12;16.50;41.00
39325;DHT22;25037;49.488;9.900;2023-04-25T15:31:39;16.40;41.10
39325;DHT22;25037;49.488;9.900;2023-04-25T15:34:06;16.30;41.50
39325;DHT22;25037;49.488;9.900;2023-04-25T15:36:32;16.20;41.30
39325;DHT22;25037;49.488;9.900;2023-04-25T15:38:59;16.20;41.50
39325;DHT22;25037;49.488;9.900;2023-04-25T15:41:26;16.10;41.30